Time;durP1;ratioP1;P1;durP2;ratioP2;P2;SDS_P1;SDS_P2;PMS_P1;PMS_P2;Temp;Humidity;BMP_temperature;BMP_pressure;BME280_temperature;BME280_humidity;BME280_pressure;Samples;Min_cycle;Max_cycle;Signal;HPM_P1;HPM_P2
2021/03/11 00:00:44;;;;;;;11.43;8.98;;;6.70;90.60;;;;;;5059937;28;20595;-72
2021/03/11 00:03:11;;;;;;;11.20;9.05;;;6.70;90.70;;;;;;5061219;28;20620;-73
2021/03/11 00:05:39;;;;;;;10.30;8.50;;;6.70;90.80;;;;;;5059512;28;20200;-72
2021/03/11 00:08:05;;;;;;;10.10;8.73;;;6.70;91.10;;;;;;5059845;28;20703;-72
2021/03/11 00:10:32;;;;;;;12.20;9.82;;;6.70;90.80;;;;;;5058951;28;20588;-73
2021/03/11 00:12:59;;;;;;;11.68;8.48;;;6.70;90.90;;;;;;5059914;28;20204;-73
2021/03/11 00:15:26;;;;;;;10.57;8.70;;;6.70;90.80;;;;;;5060027;28;20238;-73
2021/03/11 00:17:52;;;;;;;12.43;10.02;;;6.70;90.80;;;;;;5063608;28;20201;-73
2021/03/11 00:20:22;;;;;;;11.95;8.93;;;6.70;90.80;;;;;;5064270;28;20221;-72
2021/03/11 00:22:49;;;;;;;11.02;8.57;;;6.70;90.70;;;;;;5064347;28;20192;-73
2021/03/11 00:25:17;;;;;;;11.50;8.65;;;6.80;90.70;;;;;;5063969;28;20196;-73
2021/03/11 00:27:44;;;;;;;11.15;8.70;;;6.70;90.90;;;;;;5063959;28;20710;-73
2021/03/11 00:30:14;;;;;;;20.80;9.45;;;6.80;90.90;;;;;;5063326;28;20699;-73
2021/03/11 00:32:40;;;;;;;10.93;8.98;;;6.70;90.80;;;;;;5063848;28;20200;-73
2021/03/11 00:35:11;;;;;;;11.80;8.45;;;6.80;90.90;;;;;;5066318;28;20204;-73
2021/03/11 00:37:39;;;;;;;11.75;9.00;;;6.80;90.90;;;;;;5047536;28;20194;-73
2021/03/11 00:40:10;;;;;;;12.75;8.93;;;6.80;90.90;;;;;;5051249;28;20262;-73
2021/03/11 00:42:36;;;;;;;13.48;8.85;;;6.80;90.90;;;;;;5067448;28;20200;-73
2021/03/11 00:45:03;;;;;;;12.00;9.10;;;6.80;90.90;;;;;;5068013;28;20202;-72
2021/03/11 00:47:30;;;;;;;10.15;8.27;;;6.90;90.90;;;;;;5067588;28;20330;-73
2021/03/11 00:49:57;;;;;;;11.15;8.70;;;6.90;91.10;;;;;;5067169;28;20205;-73
2021/03/11 00:52:23;;;;;;;11.43;9.07;;;6.90;90.90;;;;;;5067736;28;20197;-73
2021/03/11 00:54:49;;;;;;;10.63;8.65;;;6.90;91.00;;;;;;5068391;28;20189;-73
2021/03/11 00:57:15;;;;;;;14.18;10.20;;;6.90;91.10;;;;;;5067684;28;20201;-72
2021/03/11 00:59:42;;;;;;;10.68;8.80;;;6.90;91.20;;;;;;5064607;28;20686;-72
2021/03/11 01:02:08;;;;;;;12.07;9.00;;;7.00;91.10;;;;;;5066951;28;20245;-72
2021/03/11 01:04:35;;;;;;;10.38;9.07;;;6.90;91.30;;;;;;5069818;28;20200;-73
2021/03/11 01:07:02;;;;;;;14.48;9.75;;;6.90;91.20;;;;;;5065012;28;20220;-72
2021/03/11 01:09:28;;;;;;;10.73;8.60;;;6.90;91.30;;;;;;5065419;28;20193;-72
2021/03/11 01:11:54;;;;;;;12.10;9.18;;;6.90;91.20;;;;;;5051039;28;20212;-72
2021/03/11 01:14:20;;;;;;;12.15;8.98;;;6.90;91.40;;;;;;5046338;28;20218;-73
2021/03/11 01:16:50;;;;;;;13.00;8.75;;;6.90;91.40;;;;;;5045072;28;20197;-72
2021/03/11 01:19:16;;;;;;;12.18;8.85;;;6.90;91.50;;;;;;5066289;28;20200;-73
2021/03/11 01:21:43;;;;;;;12.18;8.60;;;6.90;91.60;;;;;;5070166;28;20220;-73
2021/03/11 01:24:10;;;;;;;10.50;7.72;;;6.90;91.70;;;;;;5070269;28;20193;-73
2021/03/11 01:26:36;;;;;;;8.23;6.53;;;7.00;91.80;;;;;;5050741;28;20209;-73
2021/03/11 01:29:02;;;;;;;11.20;7.13;;;7.10;92.00;;;;;;5049904;28;20328;-73
2021/03/11 01:31:31;;;;;;;10.70;6.95;;;7.10;92.00;;;;;;5054242;28;20652;-73
2021/03/11 01:33:57;;;;;;;8.10;7.18;;;7.10;92.00;;;;;;5069924;28;20204;-74
2021/03/11 01:36:23;;;;;;;9.60;6.50;;;7.10;92.20;;;;;;5069893;28;20212;-73
2021/03/11 01:38:50;;;;;;;9.60;6.18;;;7.10;92.40;;;;;;5069547;28;20201;-73
2021/03/11 01:41:17;;;;;;;7.55;5.68;;;7.10;92.60;;;;;;5069923;28;20235;-73
2021/03/11 01:43:43;;;;;;;8.57;5.50;;;7.20;92.70;;;;;;5057976;28;20691;-73
2021/03/11 01:46:09;;;;;;;7.70;4.82;;;7.20;92.90;;;;;;5049676;28;20205;-73
2021/03/11 01:48:37;;;;;;;6.13;5.25;;;7.30;93.00;;;;;;5112723;22;20226;-93
2021/03/11 01:51:04;;;;;;;8.75;4.72;;;7.30;93.30;;;;;;5102473;22;20223;-74
2021/03/11 01:53:31;;;;;;;6.38;4.63;;;7.30;93.60;;;;;;5089825;28;20570;-72
2021/03/11 01:55:59;;;;;;;5.45;4.50;;;7.30;93.70;;;;;;5090662;28;20211;-73
2021/03/11 01:58:26;;;;;;;7.28;4.55;;;7.30;93.70;;;;;;5090374;28;20670;-73
2021/03/11 02:00:52;;;;;;;5.70;4.75;;;7.30;93.80;;;;;;5089773;28;20227;-73
2021/03/11 02:03:19;;;;;;;4.97;4.47;;;7.20;93.90;;;;;;5090310;28;20674;-73
2021/03/11 02:05:45;;;;;;;7.28;5.07;;;7.30;93.90;;;;;;5090574;28;20199;-72
2021/03/11 02:08:11;;;;;;;5.72;4.30;;;7.30;93.80;;;;;;5090025;28;20223;-72
2021/03/11 02:10:38;;;;;;;5.82;4.78;;;7.20;93.80;;;;;;5089429;28;20219;-71
2021/03/11 02:13:19;;;;;;;5.82;4.45;;;7.30;94.00;;;;;;5090021;28;20242;-72
2021/03/11 02:15:50;;;;;;;6.90;4.45;;;7.20;94.30;;;;;;5090227;28;20551;-73
2021/03/11 02:18:22;;;;;;;8.15;4.60;;;7.30;94.00;;;;;;5089747;28;20208;-71
2021/03/11 02:20:56;;;;;;;4.82;4.30;;;7.30;94.00;;;;;;5089557;28;20219;-73
2021/03/11 02:23:58;;;;;;;8.15;4.88;;;7.20;94.10;;;;;;5089561;28;20222;-73
2021/03/11 02:26:40;;;;;;;8.90;4.80;;;7.20;94.10;;;;;;5073850;28;20207;-72
2021/03/11 02:29:10;;;;;;;7.10;4.85;;;7.20;94.10;;;;;;5089304;28;20565;-73
2021/03/11 02:31:37;;;;;;;6.95;4.88;;;7.20;94.20;;;;;;5089848;28;20664;-73
2021/03/11 02:34:10;;;;;;;5.80;4.50;;;7.20;94.10;;;;;;5089554;28;20237;-73
2021/03/11 02:36:37;;;;;;;6.53;4.70;;;7.20;94.30;;;;;;5089935;28;20200;-74
2021/03/11 02:39:07;;;;;;;6.85;5.10;;;7.10;94.10;;;;;;5089056;28;20591;-73
2021/03/11 02:41:35;;;;;;;5.70;4.82;;;7.10;94.00;;;;;;5089541;28;20220;-73
2021/03/11 02:44:02;;;;;;;5.93;4.85;;;7.10;94.00;;;;;;5089493;28;20438;-72
2021/03/11 02:46:29;;;;;;;7.45;5.35;;;7.10;94.00;;;;;;5089286;28;20590;-73
2021/03/11 02:48:58;;;;;;;7.47;5.40;;;7.10;93.80;;;;;;5088853;28;20662;-73
2021/03/11 02:51:24;;;;;;;8.60;5.80;;;7.10;93.50;;;;;;5089349;28;20220;-73
2021/03/11 02:53:51;;;;;;;7.97;6.05;;;7.00;93.30;;;;;;5089617;28;20204;-73
2021/03/11 02:56:18;;;;;;;7.00;5.60;;;7.00;93.40;;;;;;5089367;28;20203;-73
2021/03/11 02:58:46;;;;;;;7.53;5.63;;;7.00;93.50;;;;;;5088252;28;20211;-73
2021/03/11 03:01:16;;;;;;;6.90;5.50;;;7.10;93.30;;;;;;5089217;28;20296;-73
2021/03/11 03:03:43;;;;;;;7.40;5.75;;;7.10;92.90;;;;;;5089218;28;20223;-72
2021/03/11 03:06:11;;;;;;;9.98;6.13;;;7.00;93.00;;;;;;5089408;28;20588;-72
2021/03/11 03:08:38;;;;;;;6.15;5.55;;;7.10;93.00;;;;;;5088390;28;20574;-73
2021/03/11 03:11:05;;;;;;;6.75;5.72;;;7.10;92.90;;;;;;5089187;28;20266;-72
2021/03/11 03:13:32;;;;;;;7.85;5.75;;;7.10;92.60;;;;;;5089148;28;20196;-73
2021/03/11 03:15:59;;;;;;;7.20;4.93;;;7.10;92.70;;;;;;5089309;28;20212;-73
2021/03/11 03:18:28;;;;;;;7.30;5.85;;;7.10;92.60;;;;;;5089069;28;20683;-73
2021/03/11 03:20:56;;;;;;;7.75;5.20;;;7.10;92.60;;;;;;5088620;28;20224;-73
2021/03/11 03:23:24;;;;;;;5.53;5.03;;;7.20;92.70;;;;;;5088837;28;20212;-72
2021/03/11 03:25:51;;;;;;;6.57;4.90;;;7.20;92.50;;;;;;5089152;28;20196;-73
2021/03/11 03:28:18;;;;;;;9.30;6.07;;;7.20;92.60;;;;;;5088932;28;20220;-73
2021/03/11 03:30:45;;;;;;;6.22;5.22;;;7.10;93.20;;;;;;5088584;28;20321;-73
2021/03/11 03:33:12;;;;;;;5.20;4.47;;;7.20;93.10;;;;;;5089157;28;20211;-73
2021/03/11 03:35:38;;;;;;;6.85;4.85;;;7.20;93.20;;;;;;5089363;28;20575;-73
2021/03/11 03:38:05;;;;;;;5.03;4.25;;;7.20;93.40;;;;;;5089010;28;20196;-73
2021/03/11 03:40:32;;;;;;;4.70;4.18;;;7.20;93.30;;;;;;5088593;28;20226;-73
2021/03/11 03:43:06;;;;;;;6.80;5.13;;;7.20;93.50;;;;;;5088970;28;20252;-73
2021/03/11 03:45:37;;;;;;;5.68;4.28;;;7.30;93.30;;;;;;5088780;28;20202;-72
2021/03/11 03:48:07;;;;;;;7.28;4.68;;;7.30;93.40;;;;;;5088643;28;20603;-73
2021/03/11 03:50:34;;;;;;;4.85;4.07;;;7.30;93.50;;;;;;5088085;28;20235;-73
2021/03/11 03:53:04;;;;;;;4.80;3.78;;;7.30;93.70;;;;;;5088986;28;20625;-73
2021/03/11 03:55:35;;;;;;;6.38;4.20;;;7.40;93.80;;;;;;5088665;28;20204;-73
2021/03/11 03:58:02;;;;;;;6.28;3.88;;;7.50;93.90;;;;;;5088817;28;20689;-72
2021/03/11 04:00:28;;;;;;;4.13;3.35;;;7.60;94.20;;;;;;5087902;28;20223;-71
2021/03/11 04:02:56;;;;;;;4.85;3.60;;;7.60;94.30;;;;;;5088962;28;20210;-73
2021/03/11 04:05:23;;;;;;;5.32;4.30;;;7.80;94.70;;;;;;5088620;28;20219;-72
2021/03/11 04:07:51;;;;;;;5.90;4.20;;;7.90;94.80;;;;;;5088346;28;20219;-73
2021/03/11 04:10:17;;;;;;;3.38;2.88;;;8.00;95.00;;;;;;5090270;28;20227;-73
2021/03/11 04:12:46;;;;;;;6.10;4.10;;;8.10;95.40;;;;;;5092627;28;20207;-71
2021/03/11 04:15:12;;;;;;;4.72;3.80;;;8.20;95.50;;;;;;5092600;28;20680;-73
2021/03/11 04:17:41;;;;;;;3.85;3.00;;;8.30;95.60;;;;;;5092251;28;20252;-72
2021/03/11 04:20:09;;;;;;;10.43;4.05;;;8.40;95.70;;;;;;5091639;28;20196;-72
2021/03/11 04:22:36;;;;;;;7.07;4.47;;;8.40;95.90;;;;;;5092097;28;20203;-72
2021/03/11 04:25:03;;;;;;;4.93;3.10;;;8.40;96.10;;;;;;5092456;28;20207;-72
2021/03/11 04:27:29;;;;;;;5.63;3.60;;;8.50;96.30;;;;;;5091960;28;20237;-72
2021/03/11 04:29:58;;;;;;;4.00;3.60;;;8.50;96.30;;;;;;5091613;28;20283;-72
2021/03/11 04:32:25;;;;;;;6.28;3.45;;;8.50;96.40;;;;;;5092120;28;20574;-72
2021/03/11 04:34:51;;;;;;;4.55;3.88;;;8.60;96.40;;;;;;5088995;28;20200;-72
2021/03/11 04:37:18;;;;;;;4.18;3.55;;;8.60;96.40;;;;;;5071406;28;20731;-72
2021/03/11 04:39:46;;;;;;;5.78;3.95;;;8.60;96.50;;;;;;5087119;28;20200;-73
2021/03/11 04:42:12;;;;;;;4.55;3.75;;;8.60;96.50;;;;;;5091732;28;20228;-73
2021/03/11 04:44:41;;;;;;;3.60;2.75;;;8.60;96.70;;;;;;5092335;28;20831;-71
2021/03/11 04:47:10;;;;;;;3.63;3.20;;;8.70;96.80;;;;;;5091848;28;20227;-72
2021/03/11 04:49:38;;;;;;;6.82;3.40;;;8.70;96.80;;;;;;5091877;28;20213;-72
2021/03/11 04:52:05;;;;;;;6.40;3.10;;;8.70;96.80;;;;;;5091796;28;20223;-73
2021/03/11 04:54:31;;;;;;;4.00;3.30;;;8.60;96.90;;;;;;5091304;28;20199;-73
2021/03/11 04:56:58;;;;;;;4.28;3.40;;;8.70;97.00;;;;;;5073214;28;20563;-72
2021/03/11 04:59:25;;;;;;;4.57;2.95;;;8.70;97.00;;;;;;5071931;28;20204;-72
2021/03/11 05:01:55;;;;;;;3.80;3.40;;;8.70;97.00;;;;;;5068469;28;20217;-72
2021/03/11 05:04:23;;;;;;;6.28;3.53;;;8.70;97.10;;;;;;5069959;28;20200;-72
2021/03/11 05:06:50;;;;;;;4.30;2.90;;;8.60;97.20;;;;;;5070496;28;20208;-74
2021/03/11 05:09:16;;;;;;;4.05;3.40;;;8.70;97.30;;;;;;5069703;28;20285;-74
2021/03/11 05:11:43;;;;;;;4.78;3.63;;;8.70;97.20;;;;;;5071309;28;20741;-73
2021/03/11 05:14:09;;;;;;;4.20;3.78;;;8.70;97.30;;;;;;5070331;28;20200;-73
2021/03/11 05:16:36;;;;;;;5.07;3.38;;;8.70;97.40;;;;;;5071357;28;20200;-74
2021/03/11 05:19:02;;;;;;;4.38;3.30;;;8.70;97.50;;;;;;5070123;28;20196;-74
2021/03/11 05:21:29;;;;;;;4.97;3.85;;;8.60;97.40;;;;;;5089715;28;20706;-73
2021/03/11 05:23:55;;;;;;;3.50;3.10;;;8.60;97.50;;;;;;5091015;28;20520;-74
2021/03/11 05:26:21;;;;;;;6.05;3.13;;;8.70;97.50;;;;;;5090690;28;20199;-74
2021/03/11 05:28:48;;;;;;;9.32;4.45;;;8.70;97.60;;;;;;5090504;28;20220;-75
2021/03/11 05:31:14;;;;;;;4.53;3.15;;;8.70;97.70;;;;;;5090947;28;20216;-74
2021/03/11 05:33:40;;;;;;;3.92;3.50;;;8.60;97.80;;;;;;5071482;28;20197;-74
2021/03/11 05:36:07;;;;;;;3.92;3.22;;;8.60;97.90;;;;;;5070299;28;20593;-74
2021/03/11 05:38:34;;;;;;;4.50;3.33;;;8.70;98.00;;;;;;5069704;28;20199;-73
2021/03/11 05:41:02;;;;;;;6.50;3.70;;;8.60;98.10;;;;;;5070346;28;20230;-74
2021/03/11 05:43:29;;;;;;;3.95;3.45;;;8.60;98.10;;;;;;5070252;28;20200;-75
2021/03/11 05:45:56;;;;;;;4.38;3.03;;;8.70;98.20;;;;;;5070184;28;20286;-74
2021/03/11 05:48:26;;;;;;;6.75;3.60;;;8.60;98.20;;;;;;5070191;28;20785;-75
2021/03/11 05:50:53;;;;;;;5.78;3.50;;;8.60;98.30;;;;;;5069316;28;20278;-75
2021/03/11 05:53:19;;;;;;;3.55;3.25;;;8.60;98.30;;;;;;5070107;28;20220;-75
2021/03/11 05:55:47;;;;;;;4.43;3.03;;;8.60;98.40;;;;;;5070516;28;20209;-74
2021/03/11 05:58:18;;;;;;;6.70;3.53;;;8.60;98.60;;;;;;5070442;28;20196;-75
2021/03/11 06:00:44;;;;;;;4.35;3.20;;;8.60;98.50;;;;;;5069867;28;20224;-73
2021/03/11 06:03:11;;;;;;;3.20;2.90;;;8.70;98.50;;;;;;5069708;28;20208;-73
2021/03/11 06:05:38;;;;;;;5.28;3.20;;;8.70;98.60;;;;;;5069945;28;20200;-74
2021/03/11 06:08:08;;;;;;;3.10;2.80;;;8.70;98.60;;;;;;5069550;28;20224;-75
2021/03/11 06:10:36;;;;;;;4.25;3.17;;;8.70;98.70;;;;;;5069475;28;20224;-75
2021/03/11 06:13:04;;;;;;;3.35;3.00;;;8.70;98.70;;;;;;5069389;28;20282;-75
2021/03/11 06:15:32;;;;;;;2.92;2.63;;;8.80;98.80;;;;;;5069600;28;20212;-75
2021/03/11 06:17:59;;;;;;;5.90;3.05;;;8.80;98.80;;;;;;5082803;28;20188;-75
2021/03/11 06:20:26;;;;;;;3.25;2.78;;;8.70;98.80;;;;;;5088925;28;20339;-75
2021/03/11 06:22:54;;;;;;;3.42;3.13;;;8.70;98.80;;;;;;5090002;28;20223;-75
2021/03/11 06:25:21;;;;;;;3.85;2.80;;;8.70;98.80;;;;;;5089517;28;20864;-75
2021/03/11 06:27:48;;;;;;;4.95;3.83;;;8.70;98.70;;;;;;5090096;28;20637;-73
2021/03/11 06:30:33;;;;;;;3.80;3.30;;;8.80;98.60;;;;;;5089043;28;20204;-73
2021/03/11 06:33:00;;;;;;;2.40;2.20;;;8.80;98.50;;;;;;5090056;28;20204;-75
2021/03/11 06:35:27;;;;;;;2.63;2.42;;;8.80;98.40;;;;;;5089850;28;20207;-74
2021/03/11 06:37:54;;;;;;;5.93;3.47;;;8.90;98.40;;;;;;5089957;28;20191;-74
2021/03/11 06:40:22;;;;;;;5.57;3.20;;;8.90;98.30;;;;;;5089597;28;20220;-74
2021/03/11 06:42:50;;;;;;;3.05;2.60;;;9.00;98.10;;;;;;5089944;28;20207;-75
2021/03/11 06:45:21;;;;;;;3.22;2.60;;;9.10;98.00;;;;;;5089676;28;20203;-74
2021/03/11 06:47:48;;;;;;;5.38;2.80;;;9.10;97.90;;;;;;5089741;28;20223;-74
2021/03/11 06:50:15;;;;;;;3.63;2.97;;;9.10;97.90;;;;;;5088968;28;20376;-75
2021/03/11 06:53:00;;;;;;;5.20;2.63;;;9.10;97.80;;;;;;5089826;28;20257;-73
2021/03/11 06:55:26;;;;;;;2.70;2.40;;;9.20;97.90;;;;;;5089822;28;20199;-75
2021/03/11 06:57:53;;;;;;;4.53;4.07;;;9.20;97.70;;;;;;5089719;28;20200;-75
2021/03/11 07:00:22;;;;;;;3.78;2.80;;;9.30;97.70;;;;;;5086574;28;20216;-74
2021/03/11 07:02:53;;;;;;;4.13;3.05;;;9.30;97.60;;;;;;5069725;28;20204;-74
2021/03/11 07:05:21;;;;;;;6.50;2.88;;;9.30;97.60;;;;;;5068871;28;20205;-75
2021/03/11 07:07:48;;;;;;;4.00;2.60;;;9.30;97.60;;;;;;5069528;28;20224;-74
2021/03/11 07:10:25;;;;;;;2.95;2.00;;;9.40;97.60;;;;;;5068379;28;20200;-73
2021/03/11 07:12:53;;;;;;;3.35;2.30;;;9.40;97.60;;;;;;5069269;28;20200;-74
2021/03/11 07:15:21;;;;;;;2.53;2.28;;;9.40;97.50;;;;;;5068783;28;20196;-74
2021/03/11 07:17:47;;;;;;;4.38;2.55;;;9.50;97.60;;;;;;5069356;28;20200;-74
2021/03/11 07:20:16;;;;;;;3.15;2.10;;;9.50;97.60;;;;;;5068230;28;20204;-75
2021/03/11 07:22:57;;;;;;;2.40;2.08;;;9.60;97.60;;;;;;5069115;28;20561;-75
2021/03/11 07:25:30;;;;;;;2.80;2.33;;;9.70;97.60;;;;;;5068731;28;20230;-75
2021/03/11 07:27:56;;;;;;;5.40;2.25;;;9.70;97.60;;;;;;5068909;28;20224;-74
2021/03/11 07:30:25;;;;;;;2.83;2.03;;;9.70;97.60;;;;;;5068303;28;20224;-75
2021/03/11 07:32:57;;;;;;;2.60;2.40;;;9.80;97.60;;;;;;5068664;28;20253;-74
2021/03/11 07:35:26;;;;;;;2.67;2.47;;;9.90;97.60;;;;;;5068437;28;20211;-73
2021/03/11 07:37:54;;;;;;;2.00;1.80;;;9.90;97.60;;;;;;5068755;28;20307;-74
2021/03/11 07:40:21;;;;;;;2.35;2.15;;;9.90;97.60;;;;;;5067651;28;20326;-75
2021/03/11 07:42:47;;;;;;;3.45;2.10;;;10.00;97.20;;;;;;5068871;28;20577;-75
2021/03/11 07:45:14;;;;;;;2.65;1.95;;;10.00;97.20;;;;;;5067657;28;20201;-74
2021/03/11 07:47:41;;;;;;;3.00;2.33;;;10.00;97.10;;;;;;5064046;28;20393;-74
2021/03/11 07:50:10;;;;;;;3.28;2.00;;;10.10;97.00;;;;;;5061205;28;20336;-74
2021/03/11 07:52:38;;;;;;;2.60;2.20;;;10.20;97.20;;;;;;5063601;28;20460;-75
2021/03/11 07:55:08;;;;;;;2.65;2.15;;;10.20;97.60;;;;;;5070757;28;20210;-74
2021/03/11 07:57:40;;;;;;;3.80;2.15;;;10.20;97.20;;;;;;5076864;28;20203;-75
2021/03/11 08:00:08;;;;;;;4.05;2.53;;;10.20;97.30;;;;;;5061294;28;20205;-75
2021/03/11 08:02:37;;;;;;;2.00;1.80;;;10.20;97.20;;;;;;5063185;28;20736;-75
2021/03/11 08:05:04;;;;;;;2.65;2.28;;;10.30;97.10;;;;;;5062603;28;20373;-74
2021/03/11 08:07:30;;;;;;;2.30;2.10;;;10.30;97.10;;;;;;5062223;28;20232;-75
2021/03/11 08:09:59;;;;;;;3.88;2.40;;;10.40;97.00;;;;;;5071894;28;20210;-75
2021/03/11 08:12:34;;;;;;;1.92;1.73;;;10.50;96.90;;;;;;5068793;28;20671;-75
2021/03/11 08:15:02;;;;;;;3.42;2.30;;;10.50;96.90;;;;;;5070101;28;20207;-75
2021/03/11 08:17:42;;;;;;;3.10;2.58;;;10.50;96.80;;;;;;5069959;28;20203;-74
2021/03/11 08:20:30;;;;;;;2.28;1.90;;;10.60;96.90;;;;;;5071236;28;20207;-74
2021/03/11 08:23:04;;;;;;;2.70;2.20;;;10.70;96.80;;;;;;5080890;28;20263;-74
2021/03/11 08:25:49;;;;;;;3.05;2.20;;;10.90;96.60;;;;;;5075668;28;20208;-75
2021/03/11 08:28:38;;;;;;;6.28;2.45;;;11.00;96.40;;;;;;5068231;28;20224;-75
2021/03/11 08:31:06;;;;;;;2.88;1.90;;;11.00;96.30;;;;;;5078397;28;20463;-75
2021/03/11 08:33:46;;;;;;;4.13;2.25;;;11.10;96.40;;;;;;5084930;28;20634;-75
2021/03/11 08:36:44;;;;;;;2.55;2.05;;;11.10;96.20;;;;;;5063185;28;20215;-75
2021/03/11 08:39:34;;;;;;;2.33;2.10;;;11.20;96.20;;;;;;5071053;28;20671;-74
2021/03/11 08:42:15;;;;;;;4.28;1.98;;;11.20;96.20;;;;;;5063232;28;20220;-74
2021/03/11 08:44:46;;;;;;;3.38;2.03;;;11.30;96.20;;;;;;5076070;28;20218;-75
2021/03/11 08:47:13;;;;;;;1.77;1.50;;;11.40;96.10;;;;;;5075357;28;20227;-74
2021/03/11 08:49:42;;;;;;;2.10;1.90;;;11.40;96.20;;;;;;5065400;28;20573;-75
2021/03/11 08:52:43;;;;;;;1.90;1.70;;;11.50;96.40;;;;;;5078238;28;20710;-74
2021/03/11 08:55:34;;;;;;;7.63;2.03;;;11.50;96.60;;;;;;5066667;28;20630;-75
2021/03/11 08:58:00;;;;;;;5.43;1.58;;;11.70;96.60;;;;;;5081770;28;20196;-75
2021/03/11 09:00:55;;;;;;;2.80;1.92;;;11.80;96.50;;;;;;5070871;28;20717;-74
2021/03/11 09:03:46;;;;;;;7.10;2.00;;;12.00;96.50;;;;;;5066819;28;20208;-75
2021/03/11 09:06:14;;;;;;;2.40;1.50;;;12.30;96.20;;;;;;5068649;28;20216;-75
2021/03/11 09:08:49;;;;;;;1.88;1.50;;;12.20;96.10;;;;;;5070606;28;20228;-75
2021/03/11 09:11:20;;;;;;;2.00;1.80;;;12.20;96.30;;;;;;5070330;28;20220;-75
2021/03/11 09:13:48;;;;;;;2.30;2.08;;;12.10;96.30;;;;;;5070598;28;20201;-75
2021/03/11 09:16:15;;;;;;;8.88;2.30;;;12.20;96.30;;;;;;5070431;28;20208;-74
2021/03/11 09:18:41;;;;;;;2.42;1.83;;;12.30;96.40;;;;;;5070090;28;20667;-74
2021/03/11 09:21:08;;;;;;;2.70;1.77;;;12.40;96.10;;;;;;5088292;28;20714;-74
2021/03/11 09:23:40;;;;;;;1.80;1.50;;;12.30;96.30;;;;;;5090958;28;20199;-74
2021/03/11 09:26:07;;;;;;;4.50;1.48;;;12.30;96.10;;;;;;5090201;28;20220;-72
2021/03/11 09:28:35;;;;;;;3.17;1.90;;;12.20;96.00;;;;;;5090531;28;20613;-73
2021/03/11 09:31:01;;;;;;;4.55;1.52;;;12.30;96.40;;;;;;5078828;28;20217;-72
2021/03/11 09:33:28;;;;;;;1.95;1.70;;;12.30;96.10;;;;;;5070293;28;20204;-73
2021/03/11 09:35:54;;;;;;;2.10;1.48;;;12.20;96.20;;;;;;5070953;28;20608;-74
2021/03/11 09:38:25;;;;;;;3.33;1.73;;;12.10;96.20;;;;;;5069808;28;20192;-73
2021/03/11 09:40:52;;;;;;;1.50;1.30;;;12.10;96.50;;;;;;5069781;28;20223;-73
2021/03/11 09:43:26;;;;;;;1.52;1.42;;;12.10;96.50;;;;;;5069804;28;20207;-74
2021/03/11 09:45:56;;;;;;;2.20;1.60;;;12.20;96.50;;;;;;5070225;28;20266;-73
2021/03/11 09:48:25;;;;;;;1.42;1.33;;;12.30;96.40;;;;;;5069878;28;20257;-74
2021/03/11 09:50:57;;;;;;;2.20;1.45;;;12.50;96.30;;;;;;5069067;28;20224;-73
2021/03/11 09:53:31;;;;;;;3.05;1.40;;;12.70;96.00;;;;;;5070225;28;20204;-73
2021/03/11 09:55:58;;;;;;;1.75;1.35;;;12.90;95.80;;;;;;5070681;28;20207;-73
2021/03/11 09:58:24;;;;;;;1.70;1.53;;;12.90;96.00;;;;;;5083524;28;20624;-73
2021/03/11 10:00:51;;;;;;;6.20;1.97;;;12.90;95.90;;;;;;5090076;28;20484;-73
2021/03/11 10:03:20;;;;;;;1.53;1.43;;;12.90;95.90;;;;;;5089597;28;20528;-73
2021/03/11 10:05:51;;;;;;;2.00;1.77;;;12.90;96.00;;;;;;5090238;28;20980;-73
2021/03/11 10:08:35;;;;;;;1.50;1.20;;;12.80;96.20;;;;;;5089083;28;20488;-74
2021/03/11 10:11:06;;;;;;;2.53;1.23;;;12.70;96.50;;;;;;5090224;28;20576;-73
2021/03/11 10:13:38;;;;;;;1.90;1.60;;;12.70;96.50;;;;;;5090090;28;20631;-74
2021/03/11 10:16:05;;;;;;;2.58;1.60;;;12.60;96.80;;;;;;5089373;28;20275;-73
2021/03/11 10:18:33;;;;;;;2.60;1.67;;;12.70;96.80;;;;;;5089532;28;20199;-73
2021/03/11 10:21:01;;;;;;;1.47;1.20;;;12.80;96.90;;;;;;5089752;28;20604;-74
2021/03/11 10:23:27;;;;;;;1.27;1.17;;;12.90;96.90;;;;;;5089677;28;20462;-74
2021/03/11 10:26:13;;;;;;;1.23;1.13;;;13.10;96.80;;;;;;5090035;28;20460;-74
2021/03/11 10:28:41;;;;;;;1.10;1.00;;;13.30;96.70;;;;;;5088812;28;20482;-74
2021/03/11 10:31:08;;;;;;;1.40;1.17;;;13.20;96.80;;;;;;5089281;28;20583;-73
2021/03/11 10:33:36;;;;;;;1.30;1.20;;;13.20;97.10;;;;;;5089323;28;20469;-75
2021/03/11 10:36:17;;;;;;;2.58;1.48;;;13.10;97.40;;;;;;5089796;28;20556;-74
2021/03/11 10:39:01;;;;;;;1.75;1.40;;;13.00;97.60;;;;;;5089196;28;20199;-74
2021/03/11 10:41:27;;;;;;;2.45;1.10;;;13.00;97.70;;;;;;5089414;28;20219;-73
2021/03/11 10:44:05;;;;;;;1.60;1.10;;;13.00;97.80;;;;;;5089703;28;20822;-74
2021/03/11 10:46:32;;;;;;;2.33;1.30;;;13.10;97.80;;;;;;5089585;28;20461;-73
2021/03/11 10:48:59;;;;;;;1.43;1.20;;;13.50;97.70;;;;;;5089215;28;20230;-73
2021/03/11 10:51:28;;;;;;;1.20;1.10;;;13.80;97.50;;;;;;5088601;28;20488;-73
2021/03/11 10:53:54;;;;;;;2.37;1.20;;;13.80;97.50;;;;;;5089568;28;20460;-74
2021/03/11 10:56:21;;;;;;;2.40;1.40;;;13.70;97.60;;;;;;5089005;28;20502;-73
2021/03/11 10:58:48;;;;;;;1.50;1.30;;;13.50;97.90;;;;;;5088772;28;20515;-74
2021/03/11 11:01:17;;;;;;;2.03;1.17;;;13.30;98.20;;;;;;5078039;28;20531;-73
2021/03/11 11:03:45;;;;;;;3.23;0.90;;;13.20;98.60;;;;;;5068677;28;20516;-73
2021/03/11 11:06:12;;;;;;;2.67;1.17;;;13.20;98.80;;;;;;5068043;28;20454;-73
2021/03/11 11:08:43;;;;;;;1.33;1.20;;;13.10;99.10;;;;;;5087706;28;20489;-74
2021/03/11 11:11:09;;;;;;;1.60;1.13;;;13.00;99.20;;;;;;5088262;28;20477;-73
2021/03/11 11:13:35;;;;;;;1.20;1.10;;;13.00;99.60;;;;;;5088786;28;20906;-74
2021/03/11 11:16:02;;;;;;;2.70;1.27;;;12.90;99.90;;;;;;5073023;28;20454;-73
2021/03/11 11:18:31;;;;;;;3.00;1.10;;;12.80;99.90;;;;;;5065920;28;20463;-74
2021/03/11 11:21:00;;;;;;;2.13;1.20;;;12.60;99.90;;;;;;5068283;28;20479;-74
2021/03/11 11:23:27;;;;;;;1.90;1.02;;;12.40;99.90;;;;;;5068402;28;20451;-73
2021/03/11 11:25:54;;;;;;;1.33;1.23;;;12.30;99.90;;;;;;5068846;28;20203;-73
2021/03/11 11:28:20;;;;;;;1.40;1.17;;;12.20;99.90;;;;;;5068152;28;20628;-73
2021/03/11 11:30:46;;;;;;;1.58;1.20;;;12.10;99.90;;;;;;5068207;28;20487;-73
2021/03/11 11:33:13;;;;;;;1.30;1.10;;;12.00;99.90;;;;;;5068247;28;20299;-73
2021/03/11 11:35:39;;;;;;;1.40;1.30;;;12.00;99.90;;;;;;5068832;28;20605;-73
2021/03/11 11:38:05;;;;;;;2.13;1.08;;;11.90;99.90;;;;;;5068609;28;20196;-73
2021/03/11 11:40:34;;;;;;;1.58;1.30;;;11.80;99.90;;;;;;5067693;28;20225;-73
2021/03/11 11:43:01;;;;;;;1.45;1.05;;;11.80;99.90;;;;;;5113776;22;20239;-93
2021/03/11 11:45:30;;;;;;;1.48;1.38;;;11.70;99.90;;;;;;5069994;28;20201;-93
2021/03/11 11:47:56;;;;;;;1.95;1.42;;;11.60;99.90;;;;;;5065568;28;20209;-93
2021/03/11 11:50:23;;;;;;;1.50;1.20;;;11.60;99.90;;;;;;5061174;28;20262;-92
2021/03/11 11:55:31;;;;;;;1.50;1.40;;;11.60;99.90;;;;;;5080728;28;20208;-93
2021/03/11 11:57:58;;;;;;;2.08;1.10;;;11.50;99.90;;;;;;5078899;28;20228;-92
2021/03/11 12:00:25;;;;;;;2.95;1.20;;;11.60;99.90;;;;;;5086341;28;20251;-92
2021/03/11 12:02:52;;;;;;;1.50;1.15;;;11.60;99.90;;;;;;5081568;28;20223;-91
2021/03/11 12:05:18;;;;;;;1.95;1.10;;;11.60;99.90;;;;;;5083976;28;20193;-92
2021/03/11 12:07:45;;;;;;;1.67;1.20;;;11.60;99.90;;;;;;5084305;28;20200;-93
2021/03/11 12:10:12;;;;;;;2.38;1.20;;;11.70;99.90;;;;;;5081395;28;20263;-93
2021/03/11 12:12:39;;;;;;;2.55;1.20;;;11.80;99.90;;;;;;5081589;28;20227;-93
2021/03/11 12:15:08;;;;;;;2.50;1.70;;;11.90;99.90;;;;;;5086568;28;20212;-92
2021/03/11 12:17:35;;;;;;;1.20;1.10;;;11.90;99.90;;;;;;5087492;28;20200;-93
2021/03/11 12:20:33;;;;;;;1.70;1.23;;;11.90;99.90;;;;;;5085619;28;20287;-93
2021/03/11 12:22:59;;;;;;;1.67;1.58;;;11.80;99.90;;;;;;5078066;28;20697;-88
2021/03/11 12:25:26;;;;;;;1.70;1.13;;;11.90;99.90;;;;;;5071777;28;20428;-90
2021/03/11 12:27:52;;;;;;;1.10;1.00;;;12.00;99.90;;;;;;5063885;28;20232;-90
2021/03/11 12:30:21;;;;;;;1.25;1.10;;;12.00;99.90;;;;;;5056123;28;20212;-92
2021/03/11 12:32:48;;;;;;;1.60;1.20;;;12.10;99.90;;;;;;5071272;28;20233;-92
2021/03/11 12:35:18;;;;;;;1.27;1.17;;;12.20;99.90;;;;;;5075781;28;20220;-92
2021/03/11 12:37:45;;;;;;;1.20;1.10;;;12.40;99.90;;;;;;5079902;28;20306;-91
2021/03/11 12:40:15;;;;;;;2.25;1.08;;;12.60;99.90;;;;;;5065551;28;20205;-92
2021/03/11 12:42:46;;;;;;;1.25;1.10;;;12.70;99.90;;;;;;5073528;28;20237;-91
2021/03/11 12:45:14;;;;;;;2.38;1.42;;;13.00;99.90;;;;;;5070027;28;20240;-92
2021/03/11 12:47:45;;;;;;;1.20;1.10;;;13.40;99.90;;;;;;5059489;28;20272;-92
2021/03/11 12:53:13;;;;;;;1.80;1.33;;;13.30;99.90;;;;;;5049816;28;20454;-91
2021/03/11 12:55:41;;;;;;;1.60;1.30;;;13.40;99.90;;;;;;5078985;28;20522;-90
2021/03/11 13:01:22;;;;;;;1.50;1.10;;;14.10;99.90;;;;;;5079293;28;20788;-91
2021/03/11 13:06:56;;;;;;;2.13;1.17;;;14.10;99.90;;;;;;5072266;28;20462;-90
2021/03/11 13:09:23;;;;;;;1.83;1.27;;;13.70;99.90;;;;;;5075430;28;20482;-91
2021/03/11 13:11:52;;;;;;;1.63;1.40;;;13.20;99.90;;;;;;5082205;28;20458;-92